createdAt,value
2022-11-24T11:40:37.887Z,7.10
2022-11-24T11:43:29.992Z,8.90
2022-11-24T11:46:17.832Z,8.90
2022-11-24T11:49:06.264Z,8.90
2022-11-24T11:52:06.547Z,8.90
2022-11-24T11:55:18.857Z,9.00
2022-11-24T11:58:31.513Z,9.00
2022-11-24T12:01:35.455Z,8.90
2022-11-24T12:04:35.564Z,8.90
2022-11-24T12:07:39.409Z,8.90
2022-11-24T12:10:37.010Z,8.90
2022-11-24T12:13:44.501Z,9.00
2022-11-24T12:16:40.763Z,9.00
2022-11-24T12:19:41.396Z,9.00
2022-11-24T12:22:36.856Z,9.10
2022-11-24T12:25:30.372Z,9.10
2022-11-24T12:28:26.505Z,9.40
2022-11-24T12:31:27.837Z,9.10
2022-11-24T12:34:26.437Z,9.30
2022-11-24T12:37:28.002Z,9.20
2022-11-24T12:40:19.175Z,9.20
2022-11-24T12:43:14.997Z,9.20
2022-11-24T12:46:15.572Z,9.20
2022-11-24T12:49:17.486Z,9.20
2022-11-24T12:52:07.927Z,9.20
2022-11-24T12:54:56.232Z,9.30
2022-11-24T12:57:49.367Z,9.30
2022-11-24T13:00:43.720Z,9.30
2022-11-24T13:03:40.530Z,9.40
2022-11-24T13:06:36.577Z,9.40
2022-11-24T13:09:24.223Z,9.50
2022-11-24T13:12:32.891Z,9.50
2022-11-24T13:15:44.699Z,9.50
2022-11-24T13:18:44.647Z,9.40
2022-11-24T13:21:34.346Z,9.40
2022-11-24T13:24:27.691Z,9.40
2022-11-24T13:27:40.975Z,9.40
2022-11-24T13:30:58.056Z,9.40
2022-11-24T13:33:45.733Z,9.30
2022-11-24T13:36:53.931Z,9.30
2022-11-24T13:39:52.858Z,9.40
2022-11-24T13:43:24.774Z,9.40
2022-11-24T13:46:12.277Z,9.40
2022-11-24T13:49:01.377Z,9.40
2022-11-24T13:51:49.076Z,9.40
2022-11-24T13:54:42.343Z,9.40
2022-11-24T13:57:42.320Z,9.40
2022-11-24T14:00:32.448Z,9.50
2022-11-24T14:03:24.516Z,9.40
2022-11-24T14:06:23.679Z,9.40
2022-11-24T14:09:24.810Z,9.40
2022-11-24T14:12:17.457Z,9.40
2022-11-24T14:15:24.779Z,9.30
2022-11-24T14:18:22.496Z,9.30
2022-11-24T14:21:25.568Z,9.30
2022-11-24T14:24:21.405Z,9.40
2022-11-24T14:27:19.167Z,9.40
2022-11-24T14:30:22.983Z,9.40
2022-11-24T14:33:13.814Z,9.40
2022-11-24T14:36:01.016Z,9.40
2022-11-24T14:38:49.352Z,9.40
2022-11-24T14:41:36.802Z,9.50
2022-11-24T14:44:27.079Z,9.60
2022-11-24T14:47:28.763Z,9.70
2022-11-24T14:50:24.724Z,9.80
2022-11-24T14:53:21.849Z,9.90
2022-11-24T14:56:24.345Z,9.90
2022-11-24T14:59:26.066Z,9.90
2022-11-24T15:02:45.234Z,9.70
2022-11-24T15:05:53.739Z,9.50
2022-11-24T15:08:48.544Z,9.30
2022-11-24T15:11:48.334Z,9.30
2022-11-24T15:14:44.114Z,9.20
2022-11-24T15:17:32.421Z,9.20
2022-11-24T15:20:26.415Z,9.10
2022-11-24T15:23:24.526Z,9.00
2022-11-24T15:26:36.869Z,9.00
2022-11-24T15:29:29.666Z,8.90
2022-11-24T15:32:18.079Z,8.90
2022-11-24T15:35:05.779Z,8.90
2022-11-24T15:37:54.072Z,8.90
2022-11-24T15:40:45.424Z,8.80
2022-11-24T15:43:35.009Z,8.80
2022-11-24T15:46:22.175Z,8.70
2022-11-24T15:49:09.532Z,8.60
2022-11-24T15:51:57.104Z,8.50
2022-11-24T15:54:44.801Z,8.40
2022-11-24T15:57:35.576Z,8.30
2022-11-24T16:00:25.138Z,8.30
2022-11-24T16:03:44.972Z,8.20
2022-11-24T16:06:24.955Z,8.10
2022-11-24T16:09:17.663Z,8.00
2022-11-24T16:12:04.990Z,8.00
2022-11-24T16:14:54.442Z,7.90
2022-11-24T16:17:41.973Z,7.90
2022-11-24T16:20:29.849Z,7.80
2022-11-24T16:23:17.305Z,7.90
2022-11-24T16:26:05.474Z,7.80
2022-11-24T16:28:53.231Z,7.80
2022-11-24T16:31:43.624Z,7.80
2022-11-24T16:34:32.182Z,7.70
2022-11-24T16:37:21.436Z,7.70
2022-11-24T16:40:09.748Z,7.60
2022-11-24T16:42:59.109Z,7.60
2022-11-24T16:45:46.410Z,7.60
2022-11-24T16:48:37.991Z,7.50
2022-11-24T16:51:29.907Z,7.50
2022-11-24T16:54:20.829Z,7.50
2022-11-24T16:57:13.304Z,7.40
2022-11-24T17:00:03.025Z,7.40
2022-11-24T17:02:50.611Z,7.40
2022-11-24T17:05:40.168Z,7.30
2022-11-24T17:08:28.041Z,7.30
2022-11-24T17:11:17.247Z,7.30
2022-11-24T17:14:04.561Z,7.30
2022-11-24T17:16:52.035Z,7.20
2022-11-24T17:19:39.998Z,7.20
2022-11-24T17:22:29.921Z,7.20
2022-11-24T17:25:17.520Z,7.10
2022-11-24T17:28:05.130Z,7.10
2022-11-24T17:30:52.873Z,7.00
2022-11-24T17:33:40.606Z,7.00
2022-11-24T17:36:29.733Z,7.00
2022-11-24T17:39:24.609Z,6.90
2022-11-24T17:42:13.285Z,6.90
2022-11-24T17:45:00.883Z,6.80
2022-11-24T17:47:48.661Z,6.80
2022-11-24T17:50:36.334Z,6.70
2022-11-24T17:53:23.733Z,6.70
2022-11-24T17:56:15.328Z,6.60
2022-11-24T17:59:03.265Z,6.60
2022-11-24T18:01:52.587Z,6.50
2022-11-24T18:04:40.336Z,6.50
2022-11-24T18:07:27.494Z,6.50
2022-11-24T18:10:14.986Z,6.50
2022-11-24T18:13:04.066Z,6.40
2022-11-24T18:15:51.856Z,6.40
2022-11-24T18:18:40.435Z,6.40
2022-11-24T18:21:28.095Z,6.40
2022-11-24T18:24:19.795Z,6.30
2022-11-24T18:27:11.600Z,6.30
2022-11-24T18:30:00.891Z,6.20
2022-11-24T18:32:48.726Z,6.20
2022-11-24T18:35:36.149Z,6.10
2022-11-24T18:38:23.682Z,6.10
2022-11-24T18:41:13.442Z,6.10
2022-11-24T18:44:03.303Z,6.00
2022-11-24T18:46:52.610Z,6.00
2022-11-24T18:49:40.257Z,5.90
2022-11-24T18:52:27.909Z,5.90
2022-11-24T18:55:15.660Z,5.80
2022-11-24T18:58:03.898Z,5.80
2022-11-24T19:00:51.392Z,5.80
2022-11-24T19:03:47.816Z,5.70
2022-11-24T19:06:38.572Z,5.70
2022-11-24T19:09:26.161Z,5.70
2022-11-24T19:12:13.971Z,5.60
2022-11-24T19:15:01.677Z,5.60
2022-11-24T19:17:49.182Z,5.50
2022-11-24T19:20:38.617Z,5.50
2022-11-24T19:23:25.952Z,5.50
2022-11-24T19:26:13.703Z,5.40
2022-11-24T19:29:01.073Z,5.40
2022-11-24T19:31:48.671Z,5.40
2022-11-24T19:34:36.893Z,5.40
2022-11-24T19:37:26.663Z,5.30
2022-11-24T19:40:14.851Z,5.30
2022-11-24T19:43:02.479Z,5.20
2022-11-24T19:45:49.611Z,5.20
2022-11-24T19:48:39.544Z,5.20
2022-11-24T19:51:30.790Z,5.20
2022-11-24T19:54:20.103Z,5.10
2022-11-24T19:57:07.474Z,5.10
2022-11-24T19:59:54.935Z,5.00
2022-11-24T20:02:42.944Z,5.00
2022-11-24T20:05:30.623Z,5.00
2022-11-24T20:08:18.385Z,5.00
2022-11-24T20:11:09.072Z,4.90
2022-11-24T20:13:57.023Z,4.90
2022-11-24T20:16:46.858Z,4.90
2022-11-24T20:19:34.535Z,4.90
2022-11-24T20:22:21.936Z,4.80
2022-11-24T20:25:11.094Z,4.80
2022-11-24T20:27:59.749Z,4.80
2022-11-24T20:30:47.230Z,4.80
2022-11-24T20:33:36.369Z,4.70
2022-11-24T20:36:26.312Z,4.70
2022-11-24T20:39:16.615Z,4.70
2022-11-24T20:42:05.050Z,4.60
2022-11-24T20:44:53.767Z,4.60
2022-11-24T20:47:41.335Z,4.60
2022-11-24T20:50:29.049Z,4.50
2022-11-24T20:53:16.349Z,4.50
2022-11-24T20:56:06.416Z,4.40
2022-11-24T20:58:55.085Z,4.40
2022-11-24T21:01:46.066Z,4.40
2022-11-24T21:04:35.386Z,4.40
2022-11-24T21:07:23.401Z,4.30
2022-11-24T21:10:10.950Z,4.30
2022-11-24T21:12:58.556Z,4.30
2022-11-24T21:15:46.328Z,4.20
2022-11-24T21:18:35.980Z,4.20
2022-11-24T21:21:24.923Z,4.20
2022-11-24T21:24:13.867Z,4.20
2022-11-24T21:27:01.466Z,4.20
2022-11-24T21:29:49.048Z,4.10
2022-11-24T21:32:36.975Z,4.10
2022-11-24T21:35:25.778Z,4.20
2022-11-24T21:38:13.248Z,4.10
2022-11-24T21:41:02.560Z,4.10
2022-11-24T21:43:50.414Z,4.10
2022-11-24T21:46:44.160Z,4.00
2022-11-24T21:49:35.469Z,4.00
2022-11-24T21:52:24.410Z,4.00
2022-11-24T21:55:11.484Z,4.00
2022-11-24T21:57:58.561Z,4.00
2022-11-24T22:00:45.861Z,3.90
2022-11-24T22:03:33.420Z,3.90
2022-11-24T22:06:22.171Z,3.90
2022-11-24T22:09:16.367Z,3.90
2022-11-24T22:12:06.070Z,3.80
2022-11-24T22:14:53.971Z,3.80
2022-11-24T22:17:41.889Z,3.80
2022-11-24T22:20:29.288Z,3.80
2022-11-24T22:23:16.981Z,3.80
2022-11-24T22:26:08.094Z,3.70
2022-11-24T22:28:56.884Z,3.70
2022-11-24T22:31:44.619Z,3.70
2022-11-24T22:34:31.959Z,3.70
2022-11-24T22:37:19.222Z,3.70
2022-11-24T22:40:08.183Z,3.70
2022-11-24T22:42:57.976Z,3.70
2022-11-24T22:45:45.455Z,3.70
2022-11-24T22:48:33.184Z,3.70
2022-11-24T22:51:22.418Z,3.70
2022-11-24T22:54:14.722Z,3.70
2022-11-24T22:57:02.343Z,3.70
2022-11-24T22:59:50.892Z,3.70
2022-11-24T23:02:38.603Z,3.70
2022-11-24T23:05:26.593Z,3.70
2022-11-24T23:08:13.417Z,3.70
2022-11-24T23:11:02.263Z,3.70
2022-11-24T23:13:53.281Z,3.70
2022-11-24T23:16:43.005Z,3.60
2022-11-24T23:19:30.494Z,3.60
2022-11-24T23:22:18.004Z,3.60
2022-11-24T23:25:05.896Z,3.60
2022-11-24T23:27:53.445Z,3.60
2022-11-24T23:30:41.236Z,3.60
2022-11-24T23:33:30.167Z,3.60
2022-11-24T23:36:20.253Z,3.60
2022-11-24T23:39:12.242Z,3.60
2022-11-24T23:41:59.443Z,3.50
2022-11-24T23:44:47.034Z,3.50
2022-11-24T23:47:34.432Z,3.50
2022-11-24T23:50:23.213Z,3.50
2022-11-24T23:53:10.906Z,3.50
2022-11-24T23:55:58.196Z,3.50
2022-11-24T23:58:46.220Z,3.50
